createdAt,value
2022-08-07T00:00:10.899Z,1017.12
2022-08-07T00:14:10.914Z,1017.19
2022-08-07T00:28:10.935Z,1017
2022-08-07T00:42:10.920Z,1017
2022-08-07T00:56:13.950Z,1016.9
2022-08-07T01:10:11.018Z,1016.85
2022-08-07T01:24:10.911Z,1016.92
2022-08-07T01:38:10.943Z,1017.19
2022-08-07T01:52:10.932Z,1017.31
2022-08-07T02:06:30.656Z,1017.44
2022-08-07T02:20:17.367Z,1017.33
2022-08-07T02:34:11.728Z,1017.25
2022-08-07T02:48:15.414Z,1017.29
2022-08-07T03:02:11.021Z,1017.36
2022-08-07T03:16:10.965Z,1017.45
2022-08-07T03:30:10.982Z,1017.22
2022-08-07T03:44:10.977Z,1017.02
2022-08-07T03:58:35.704Z,1016.98
2022-08-07T04:13:15.249Z,1017.07
2022-08-07T04:28:13.225Z,1017.05
2022-08-07T04:43:11.087Z,1017.13
2022-08-07T04:58:32.989Z,1017.17
2022-08-07T05:14:45.463Z,1017.07
2022-08-07T05:28:16.651Z,1016.84
2022-08-07T05:43:11.526Z,1017.06
2022-08-07T05:58:11.064Z,1017.2
2022-08-07T06:13:13.483Z,1017.33
2022-08-07T06:28:14.056Z,1017.45
2022-08-07T06:43:21.173Z,1017.48
2022-08-07T06:58:11.154Z,1017.64
2022-08-07T07:13:11.239Z,1017.72
2022-08-07T07:28:29.575Z,1017.74
2022-08-07T07:43:11.780Z,1017.75
2022-08-07T07:58:11.109Z,1017.78
2022-08-07T08:13:15.083Z,1017.9
2022-08-07T08:28:11.117Z,1017.88
2022-08-07T08:43:11.320Z,1017.97
2022-08-07T08:58:13.149Z,1017.96
2022-08-07T09:13:11.213Z,1018.02
2022-08-07T09:30:02.610Z,1018.03
2022-08-07T09:43:11.224Z,1018.03
2022-08-07T09:58:11.617Z,1017.88
2022-08-07T10:13:15.964Z,1017.85
2022-08-07T10:28:12.519Z,1017.62
2022-08-07T10:43:11.280Z,1017.52
2022-08-07T10:58:11.211Z,1017.37
2022-08-07T11:13:16.949Z,1017.26
2022-08-07T11:28:15.425Z,1017.23
2022-08-07T11:43:11.394Z,1017.33
2022-08-07T11:58:12.567Z,1017.21
2022-08-07T12:13:16.972Z,1017.13
2022-08-07T12:28:11.578Z,1016.79
2022-08-07T12:43:11.322Z,1016.8
2022-08-07T12:58:11.288Z,1016.66
2022-08-07T13:13:11.362Z,1016.33
2022-08-07T13:28:14.113Z,1016.35
2022-08-07T13:43:11.681Z,1015.99
2022-08-07T13:58:11.412Z,1015.58
2022-08-07T14:13:11.362Z,1015.28
2022-08-07T14:43:56.193Z,1015.34
2022-08-07T14:58:24.222Z,1015.29
2022-08-07T15:13:13.734Z,1015.41
2022-08-07T15:28:33.339Z,1015.38
2022-08-07T15:43:22.585Z,1015.43
2022-08-07T15:58:20.834Z,1015.54
2022-08-07T16:13:17.689Z,1015.61
2022-08-07T16:29:18.188Z,1015.57
2022-08-07T16:43:11.368Z,1015.5
2022-08-07T16:58:11.369Z,1015.32
2022-08-07T17:13:11.421Z,1015.17
2022-08-07T17:28:11.374Z,1014.78
2022-08-07T17:43:14.920Z,1014.82
2022-08-07T17:58:11.389Z,1014.86
2022-08-07T18:13:11.416Z,1015.09
2022-08-07T18:30:04.920Z,1015.32
2022-08-07T18:44:11.495Z,1015.29
2022-08-07T18:59:46.446Z,1015.49
2022-08-07T19:14:11.858Z,1015.71
2022-08-07T19:28:31.472Z,1015.92
2022-08-07T19:42:22.422Z,1016.08
2022-08-07T19:57:53.145Z,1016.24
2022-08-07T20:10:34.436Z,1016.35
2022-08-07T20:24:11.530Z,1016.27
2022-08-07T20:38:11.544Z,1016.27
2022-08-07T20:52:14.126Z,1016.37
2022-08-07T21:06:12.585Z,1016.41
2022-08-07T21:20:13.455Z,1016.17
2022-08-07T21:34:11.565Z,1016
2022-08-07T21:48:28.197Z,1016.16
2022-08-07T22:02:13.021Z,1016.31
2022-08-07T22:16:35.686Z,1016.44
2022-08-07T22:30:12.325Z,1016.52
2022-08-07T22:44:12.902Z,1016.49
2022-08-07T22:58:11.640Z,1016.67
2022-08-07T23:12:11.616Z,1016.65
2022-08-07T23:26:11.631Z,1016.52
2022-08-07T23:40:11.642Z,1016.53
2022-08-07T23:54:11.736Z,1016.49
